sensor_id;sensor_type;location;lat;lon;timestamp;P1;durP1;ratioP1;P2;durP2;ratioP2
55292;SDS011;41157;53.560;10.098;2023-10-08T00:01:36;13.67;;;2.60;;
55292;SDS011;41157;53.560;10.098;2023-10-08T00:04:07;9.67;;;2.80;;
55292;SDS011;41157;53.560;10.098;2023-10-08T00:06:38;9.23;;;2.50;;
55292;SDS011;41157;53.560;10.098;2023-10-08T00:09:05;7.67;;;2.67;;
55292;SDS011;41157;53.560;10.098;2023-10-08T00:11:34;10.57;;;3.30;;
55292;SDS011;41157;53.560;10.098;2023-10-08T00:14:03;9.07;;;3.37;;
55292;SDS011;41157;53.560;10.098;2023-10-08T00:16:34;7.00;;;3.27;;
55292;SDS011;41157;53.560;10.098;2023-10-08T00:19:04;8.00;;;3.40;;
55292;SDS011;41157;53.560;10.098;2023-10-08T00:21:34;8.50;;;3.10;;
55292;SDS011;41157;53.560;10.098;2023-10-08T00:24:02;9.93;;;4.20;;
55292;SDS011;41157;53.560;10.098;2023-10-08T00:26:32;11.47;;;3.60;;
55292;SDS011;41157;53.560;10.098;2023-10-08T00:29:01;9.43;;;3.20;;
55292;SDS011;41157;53.560;10.098;2023-10-08T00:31:33;7.67;;;3.20;;
55292;SDS011;41157;53.560;10.098;2023-10-08T00:34:05;14.47;;;4.20;;
55292;SDS011;41157;53.560;10.098;2023-10-08T00:36:36;10.37;;;3.50;;
55292;SDS011;41157;53.560;10.098;2023-10-08T00:39:03;10.97;;;3.33;;
55292;SDS011;41157;53.560;10.098;2023-10-08T00:41:34;7.07;;;3.40;;
55292;SDS011;41157;53.560;10.098;2023-10-08T00:44:06;11.87;;;3.53;;
55292;SDS011;41157;53.560;10.098;2023-10-08T00:46:34;6.73;;;2.97;;
55292;SDS011;41157;53.560;10.098;2023-10-08T00:49:04;10.17;;;3.40;;
55292;SDS011;41157;53.560;10.098;2023-10-08T00:51:49;9.67;;;3.43;;
55292;SDS011;41157;53.560;10.098;2023-10-08T00:54:25;6.03;;;3.07;;
55292;SDS011;41157;53.560;10.098;2023-10-08T00:56:53;10.17;;;3.03;;
55292;SDS011;41157;53.560;10.098;2023-10-08T00:59:22;10.23;;;3.23;;
55292;SDS011;41157;53.560;10.098;2023-10-08T01:01:52;8.30;;;2.73;;
55292;SDS011;41157;53.560;10.098;2023-10-08T01:04:29;8.23;;;3.07;;
55292;SDS011;41157;53.560;10.098;2023-10-08T01:06:59;7.70;;;2.70;;
55292;SDS011;41157;53.560;10.098;2023-10-08T01:09:27;5.20;;;2.30;;
55292;SDS011;41157;53.560;10.098;2023-10-08T01:12:10;16.40;;;3.07;;
55292;SDS011;41157;53.560;10.098;2023-10-08T01:14:44;13.40;;;3.23;;
55292;SDS011;41157;53.560;10.098;2023-10-08T01:17:15;6.53;;;2.23;;
55292;SDS011;41157;53.560;10.098;2023-10-08T01:19:44;9.03;;;3.03;;
55292;SDS011;41157;53.560;10.098;2023-10-08T01:22:17;6.43;;;2.27;;
55292;SDS011;41157;53.560;10.098;2023-10-08T01:24:46;10.43;;;2.90;;
55292;SDS011;41157;53.560;10.098;2023-10-08T01:27:14;9.50;;;3.17;;
55292;SDS011;41157;53.560;10.098;2023-10-08T01:29:46;5.83;;;2.40;;
55292;SDS011;41157;53.560;10.098;2023-10-08T01:32:14;9.27;;;2.43;;
55292;SDS011;41157;53.560;10.098;2023-10-08T01:34:42;13.00;;;2.43;;
55292;SDS011;41157;53.560;10.098;2023-10-08T01:37:11;5.87;;;2.13;;
55292;SDS011;41157;53.560;10.098;2023-10-08T01:39:40;6.83;;;2.47;;
55292;SDS011;41157;53.560;10.098;2023-10-08T01:42:07;5.13;;;2.03;;
55292;SDS011;41157;53.560;10.098;2023-10-08T01:44:42;5.63;;;2.37;;
55292;SDS011;41157;53.560;10.098;2023-10-08T01:47:11;8.27;;;2.30;;
55292;SDS011;41157;53.560;10.098;2023-10-08T01:49:39;6.50;;;2.10;;
55292;SDS011;41157;53.560;10.098;2023-10-08T01:52:07;6.03;;;1.93;;
55292;SDS011;41157;53.560;10.098;2023-10-08T01:54:40;14.50;;;2.80;;
55292;SDS011;41157;53.560;10.098;2023-10-08T01:57:09;5.77;;;1.73;;
55292;SDS011;41157;53.560;10.098;2023-10-08T01:59:37;6.50;;;2.10;;
55292;SDS011;41157;53.560;10.098;2023-10-08T02:02:04;7.23;;;2.50;;
55292;SDS011;41157;53.560;10.098;2023-10-08T02:04:32;3.63;;;1.97;;
55292;SDS011;41157;53.560;10.098;2023-10-08T02:07:00;4.67;;;1.73;;
55292;SDS011;41157;53.560;10.098;2023-10-08T02:09:28;3.93;;;1.90;;
55292;SDS011;41157;53.560;10.098;2023-10-08T02:11:56;4.63;;;1.83;;
55292;SDS011;41157;53.560;10.098;2023-10-08T02:14:23;8.53;;;2.30;;
55292;SDS011;41157;53.560;10.098;2023-10-08T02:16:53;6.67;;;2.10;;
55292;SDS011;41157;53.560;10.098;2023-10-08T02:19:21;5.83;;;2.03;;
55292;SDS011;41157;53.560;10.098;2023-10-08T02:21:52;6.43;;;1.90;;
55292;SDS011;41157;53.560;10.098;2023-10-08T02:24:19;8.80;;;2.10;;
55292;SDS011;41157;53.560;10.098;2023-10-08T02:26:49;5.57;;;1.80;;
55292;SDS011;41157;53.560;10.098;2023-10-08T02:29:17;5.33;;;1.97;;
55292;SDS011;41157;53.560;10.098;2023-10-08T02:31:44;7.33;;;2.13;;
55292;SDS011;41157;53.560;10.098;2023-10-08T02:34:11;6.10;;;2.10;;
55292;SDS011;41157;53.560;10.098;2023-10-08T02:36:39;5.37;;;1.77;;
55292;SDS011;41157;53.560;10.098;2023-10-08T02:39:06;5.67;;;2.00;;
55292;SDS011;41157;53.560;10.098;2023-10-08T02:41:38;4.90;;;1.73;;
55292;SDS011;41157;53.560;10.098;2023-10-08T02:44:07;8.63;;;2.27;;
55292;SDS011;41157;53.560;10.098;2023-10-08T02:46:38;4.20;;;1.80;;
55292;SDS011;41157;53.560;10.098;2023-10-08T02:49:06;5.43;;;1.87;;
55292;SDS011;41157;53.560;10.098;2023-10-08T02:51:35;8.90;;;2.10;;
55292;SDS011;41157;53.560;10.098;2023-10-08T02:54:02;2.87;;;1.67;;
55292;SDS011;41157;53.560;10.098;2023-10-08T02:56:31;8.17;;;1.70;;
55292;SDS011;41157;53.560;10.098;2023-10-08T02:58:58;11.13;;;1.67;;
55292;SDS011;41157;53.560;10.098;2023-10-08T03:01:26;3.93;;;1.50;;
55292;SDS011;41157;53.560;10.098;2023-10-08T03:04:00;8.80;;;2.00;;
55292;SDS011;41157;53.560;10.098;2023-10-08T03:06:29;5.97;;;1.47;;
55292;SDS011;41157;53.560;10.098;2023-10-08T03:08:57;7.13;;;2.00;;
55292;SDS011;41157;53.560;10.098;2023-10-08T03:11:29;1.90;;;1.30;;
55292;SDS011;41157;53.560;10.098;2023-10-08T03:13:56;3.53;;;1.27;;
55292;SDS011;41157;53.560;10.098;2023-10-08T03:16:24;2.30;;;1.60;;
55292;SDS011;41157;53.560;10.098;2023-10-08T03:19:00;5.33;;;1.93;;
55292;SDS011;41157;53.560;10.098;2023-10-08T03:21:28;2.13;;;1.13;;
55292;SDS011;41157;53.560;10.098;2023-10-08T03:24:16;3.33;;;1.70;;
55292;SDS011;41157;53.560;10.098;2023-10-08T03:27:02;5.73;;;1.50;;
55292;SDS011;41157;53.560;10.098;2023-10-08T03:29:37;6.73;;;1.63;;
55292;SDS011;41157;53.560;10.098;2023-10-08T03:32:07;5.83;;;1.53;;
55292;SDS011;41157;53.560;10.098;2023-10-08T03:34:39;2.53;;;1.17;;
55292;SDS011;41157;53.560;10.098;2023-10-08T03:37:09;4.40;;;1.50;;
55292;SDS011;41157;53.560;10.098;2023-10-08T03:39:44;6.33;;;1.40;;
55292;SDS011;41157;53.560;10.098;2023-10-08T03:42:20;6.73;;;1.60;;
55292;SDS011;41157;53.560;10.098;2023-10-08T03:44:55;4.43;;;1.27;;
55292;SDS011;41157;53.560;10.098;2023-10-08T03:47:22;5.77;;;1.60;;
55292;SDS011;41157;53.560;10.098;2023-10-08T03:49:52;8.50;;;1.73;;
55292;SDS011;41157;53.560;10.098;2023-10-08T03:52:20;1.87;;;1.27;;
55292;SDS011;41157;53.560;10.098;2023-10-08T03:54:49;5.23;;;1.80;;
55292;SDS011;41157;53.560;10.098;2023-10-08T03:57:30;5.97;;;2.00;;
55292;SDS011;41157;53.560;10.098;2023-10-08T04:00:07;4.67;;;1.13;;
55292;SDS011;41157;53.560;10.098;2023-10-08T04:02:38;3.23;;;1.50;;
55292;SDS011;41157;53.560;10.098;2023-10-08T04:05:08;5.17;;;2.10;;
55292;SDS011;41157;53.560;10.098;2023-10-08T04:07:44;4.53;;;1.43;;
55292;SDS011;41157;53.560;10.098;2023-10-08T04:10:41;2.67;;;1.40;;
55292;SDS011;41157;53.560;10.098;2023-10-08T04:13:33;6.67;;;2.20;;
55292;SDS011;41157;53.560;10.098;2023-10-08T04:16:03;6.27;;;1.40;;
55292;SDS011;41157;53.560;10.098;2023-10-08T04:18:31;1.50;;;1.10;;
55292;SDS011;41157;53.560;10.098;2023-10-08T04:21:06;5.77;;;1.67;;
55292;SDS011;41157;53.560;10.098;2023-10-08T04:23:38;4.67;;;1.40;;
55292;SDS011;41157;53.560;10.098;2023-10-08T04:26:05;3.33;;;1.60;;
55292;SDS011;41157;53.560;10.098;2023-10-08T04:28:32;3.23;;;1.50;;
55292;SDS011;41157;53.560;10.098;2023-10-08T04:31:00;3.60;;;1.57;;
55292;SDS011;41157;53.560;10.098;2023-10-08T04:33:39;5.00;;;1.23;;
55292;SDS011;41157;53.560;10.098;2023-10-08T04:36:08;5.53;;;1.60;;
55292;SDS011;41157;53.560;10.098;2023-10-08T04:38:35;3.93;;;1.17;;
55292;SDS011;41157;53.560;10.098;2023-10-08T04:41:05;4.47;;;1.70;;
55292;SDS011;41157;53.560;10.098;2023-10-08T04:43:34;2.33;;;1.20;;
55292;SDS011;41157;53.560;10.098;2023-10-08T04:46:03;3.50;;;1.27;;
55292;SDS011;41157;53.560;10.098;2023-10-08T04:48:42;1.30;;;1.20;;
55292;SDS011;41157;53.560;10.098;2023-10-08T04:51:11;4.40;;;1.53;;
55292;SDS011;41157;53.560;10.098;2023-10-08T04:53:39;1.53;;;0.90;;
55292;SDS011;41157;53.560;10.098;2023-10-08T04:56:09;3.77;;;1.50;;
55292;SDS011;41157;53.560;10.098;2023-10-08T04:58:39;2.97;;;1.20;;
55292;SDS011;41157;53.560;10.098;2023-10-08T05:01:06;5.23;;;1.40;;
55292;SDS011;41157;53.560;10.098;2023-10-08T05:03:53;5.37;;;1.40;;
55292;SDS011;41157;53.560;10.098;2023-10-08T05:06:34;7.97;;;1.60;;
55292;SDS011;41157;53.560;10.098;2023-10-08T05:09:18;3.33;;;1.30;;
55292;SDS011;41157;53.560;10.098;2023-10-08T05:11:49;3.37;;;1.27;;
55292;SDS011;41157;53.560;10.098;2023-10-08T05:14:30;3.23;;;1.40;;
55292;SDS011;41157;53.560;10.098;2023-10-08T05:17:04;2.70;;;1.30;;
55292;SDS011;41157;53.560;10.098;2023-10-08T05:19:34;3.90;;;1.40;;
55292;SDS011;41157;53.560;10.098;2023-10-08T05:22:22;4.57;;;1.50;;
55292;SDS011;41157;53.560;10.098;2023-10-08T05:25:07;4.27;;;1.40;;
55292;SDS011;41157;53.560;10.098;2023-10-08T05:27:51;5.07;;;1.40;;
55292;SDS011;41157;53.560;10.098;2023-10-08T05:30:23;2.43;;;1.40;;
55292;SDS011;41157;53.560;10.098;2023-10-08T05:33:07;2.73;;;1.20;;
55292;SDS011;41157;53.560;10.098;2023-10-08T05:35:49;2.30;;;1.30;;
55292;SDS011;41157;53.560;10.098;2023-10-08T05:38:21;4.37;;;1.20;;
55292;SDS011;41157;53.560;10.098;2023-10-08T05:40:48;3.13;;;1.10;;
55292;SDS011;41157;53.560;10.098;2023-10-08T05:43:42;3.30;;;1.47;;
55292;SDS011;41157;53.560;10.098;2023-10-08T05:46:34;3.23;;;1.47;;
55292;SDS011;41157;53.560;10.098;2023-10-08T05:49:14;7.07;;;1.50;;
55292;SDS011;41157;53.560;10.098;2023-10-08T05:52:00;3.67;;;1.30;;
55292;SDS011;41157;53.560;10.098;2023-10-08T05:54:46;6.03;;;1.40;;
55292;SDS011;41157;53.560;10.098;2023-10-08T05:57:39;7.80;;;1.77;;
55292;SDS011;41157;53.560;10.098;2023-10-08T06:00:11;3.87;;;1.27;;
55292;SDS011;41157;53.560;10.098;2023-10-08T06:02:56;6.97;;;1.53;;
55292;SDS011;41157;53.560;10.098;2023-10-08T06:05:58;2.53;;;1.50;;
55292;SDS011;41157;53.560;10.098;2023-10-08T06:08:42;2.53;;;1.60;;
55292;SDS011;41157;53.560;10.098;2023-10-08T06:11:18;2.77;;;1.20;;
55292;SDS011;41157;53.560;10.098;2023-10-08T06:14:02;1.63;;;1.53;;
55292;SDS011;41157;53.560;10.098;2023-10-08T06:16:38;3.17;;;1.20;;
55292;SDS011;41157;53.560;10.098;2023-10-08T06:19:07;4.10;;;1.33;;
55292;SDS011;41157;53.560;10.098;2023-10-08T06:21:35;4.23;;;1.47;;
55292;SDS011;41157;53.560;10.098;2023-10-08T06:24:03;3.07;;;1.00;;
55292;SDS011;41157;53.560;10.098;2023-10-08T06:26:35;4.53;;;1.47;;
55292;SDS011;41157;53.560;10.098;2023-10-08T06:29:07;5.33;;;1.43;;
55292;SDS011;41157;53.560;10.098;2023-10-08T06:31:44;2.97;;;1.30;;
55292;SDS011;41157;53.560;10.098;2023-10-08T06:34:16;1.97;;;1.40;;
55292;SDS011;41157;53.560;10.098;2023-10-08T06:36:46;7.20;;;1.77;;
55292;SDS011;41157;53.560;10.098;2023-10-08T06:39:13;3.10;;;1.30;;
55292;SDS011;41157;53.560;10.098;2023-10-08T06:41:45;7.80;;;1.27;;
55292;SDS011;41157;53.560;10.098;2023-10-08T06:44:12;3.37;;;1.13;;
55292;SDS011;41157;53.560;10.098;2023-10-08T06:46:40;2.57;;;1.20;;
55292;SDS011;41157;53.560;10.098;2023-10-08T06:49:07;3.53;;;1.37;;
55292;SDS011;41157;53.560;10.098;2023-10-08T06:51:37;2.83;;;1.37;;
55292;SDS011;41157;53.560;10.098;2023-10-08T06:54:06;3.43;;;1.20;;
55292;SDS011;41157;53.560;10.098;2023-10-08T06:56:35;6.47;;;1.43;;
55292;SDS011;41157;53.560;10.098;2023-10-08T06:59:05;2.60;;;1.40;;
55292;SDS011;41157;53.560;10.098;2023-10-08T07:01:34;2.97;;;1.10;;
55292;SDS011;41157;53.560;10.098;2023-10-08T07:04:05;5.77;;;1.33;;
55292;SDS011;41157;53.560;10.098;2023-10-08T07:06:37;4.43;;;1.33;;
55292;SDS011;41157;53.560;10.098;2023-10-08T07:09:08;1.80;;;1.27;;
55292;SDS011;41157;53.560;10.098;2023-10-08T07:11:47;3.43;;;1.57;;
55292;SDS011;41157;53.560;10.098;2023-10-08T07:14:15;6.07;;;1.30;;
55292;SDS011;41157;53.560;10.098;2023-10-08T07:16:43;3.13;;;1.30;;
55292;SDS011;41157;53.560;10.098;2023-10-08T07:19:12;7.00;;;1.83;;
55292;SDS011;41157;53.560;10.098;2023-10-08T07:21:44;12.07;;;2.07;;
55292;SDS011;41157;53.560;10.098;2023-10-08T07:24:11;4.80;;;1.50;;
55292;SDS011;41157;53.560;10.098;2023-10-08T07:26:42;5.27;;;2.20;;
55292;SDS011;41157;53.560;10.098;2023-10-08T07:29:11;12.47;;;2.57;;
55292;SDS011;41157;53.560;10.098;2023-10-08T07:31:46;9.77;;;1.90;;
55292;SDS011;41157;53.560;10.098;2023-10-08T07:34:15;7.17;;;1.47;;
55292;SDS011;41157;53.560;10.098;2023-10-08T07:36:43;6.10;;;1.90;;
55292;SDS011;41157;53.560;10.098;2023-10-08T07:39:12;3.00;;;1.20;;
55292;SDS011;41157;53.560;10.098;2023-10-08T07:41:51;2.13;;;1.03;;
55292;SDS011;41157;53.560;10.098;2023-10-08T07:44:20;2.23;;;1.17;;
55292;SDS011;41157;53.560;10.098;2023-10-08T07:46:49;4.30;;;1.60;;
55292;SDS011;41157;53.560;10.098;2023-10-08T07:49:16;4.33;;;1.63;;
55292;SDS011;41157;53.560;10.098;2023-10-08T07:51:43;5.20;;;1.23;;
55292;SDS011;41157;53.560;10.098;2023-10-08T07:56:59;4.63;;;1.67;;
55292;SDS011;41157;53.560;10.098;2023-10-08T07:59:33;5.47;;;1.50;;
55292;SDS011;41157;53.560;10.098;2023-10-08T08:02:04;7.07;;;1.83;;
55292;SDS011;41157;53.560;10.098;2023-10-08T08:04:35;4.90;;;1.63;;
55292;SDS011;41157;53.560;10.098;2023-10-08T08:07:02;2.10;;;1.13;;
55292;SDS011;41157;53.560;10.098;2023-10-08T08:09:30;3.53;;;1.30;;
55292;SDS011;41157;53.560;10.098;2023-10-08T08:12:03;1.37;;;1.10;;
55292;SDS011;41157;53.560;10.098;2023-10-08T08:14:32;3.00;;;1.20;;
55292;SDS011;41157;53.560;10.098;2023-10-08T08:17:04;4.90;;;1.60;;
55292;SDS011;41157;53.560;10.098;2023-10-08T08:19:39;4.43;;;1.33;;
55292;SDS011;41157;53.560;10.098;2023-10-08T08:22:06;2.90;;;1.40;;
55292;SDS011;41157;53.560;10.098;2023-10-08T08:24:33;3.27;;;1.10;;
55292;SDS011;41157;53.560;10.098;2023-10-08T08:27:02;2.83;;;1.40;;
55292;SDS011;41157;53.560;10.098;2023-10-08T08:29:34;3.72;;;1.13;;
55292;SDS011;41157;53.560;10.098;2023-10-08T08:32:10;4.15;;;1.15;;
55292;SDS011;41157;53.560;10.098;2023-10-08T08:34:40;1.83;;;1.25;;
55292;SDS011;41157;53.560;10.098;2023-10-08T08:37:08;1.70;;;1.42;;
55292;SDS011;41157;53.560;10.098;2023-10-08T08:39:36;2.40;;;0.80;;
55292;SDS011;41157;53.560;10.098;2023-10-08T08:42:03;2.17;;;0.90;;
55292;SDS011;41157;53.560;10.098;2023-10-08T08:44:30;4.25;;;1.30;;
55292;SDS011;41157;53.560;10.098;2023-10-08T08:46:58;1.15;;;1.00;;
55292;SDS011;41157;53.560;10.098;2023-10-08T08:49:30;1.65;;;1.15;;
55292;SDS011;41157;53.560;10.098;2023-10-08T08:51:59;3.42;;;1.45;;
55292;SDS011;41157;53.560;10.098;2023-10-08T08:54:27;1.88;;;1.20;;
55292;SDS011;41157;53.560;10.098;2023-10-08T08:56:55;1.67;;;1.10;;
55292;SDS011;41157;53.560;10.098;2023-10-08T08:59:24;3.05;;;1.02;;
55292;SDS011;41157;53.560;10.098;2023-10-08T09:01:52;2.78;;;1.05;;
55292;SDS011;41157;53.560;10.098;2023-10-08T09:04:27;1.00;;;1.00;;
55292;SDS011;41157;53.560;10.098;2023-10-08T09:06:56;1.85;;;1.45;;
55292;SDS011;41157;53.560;10.098;2023-10-08T09:09:30;1.98;;;1.10;;
55292;SDS011;41157;53.560;10.098;2023-10-08T09:11:57;3.35;;;0.93;;
55292;SDS011;41157;53.560;10.098;2023-10-08T09:14:24;1.77;;;1.05;;
55292;SDS011;41157;53.560;10.098;2023-10-08T09:16:52;2.40;;;1.25;;
55292;SDS011;41157;53.560;10.098;2023-10-08T09:19:19;2.42;;;1.13;;
55292;SDS011;41157;53.560;10.098;2023-10-08T09:22:00;1.38;;;1.10;;
55292;SDS011;41157;53.560;10.098;2023-10-08T09:24:29;2.85;;;1.13;;
55292;SDS011;41157;53.560;10.098;2023-10-08T09:26:56;1.50;;;1.30;;
55292;SDS011;41157;53.560;10.098;2023-10-08T09:29:23;2.35;;;0.98;;
55292;SDS011;41157;53.560;10.098;2023-10-08T09:31:52;3.17;;;1.40;;
55292;SDS011;41157;53.560;10.098;2023-10-08T09:34:21;1.13;;;0.93;;
55292;SDS011;41157;53.560;10.098;2023-10-08T09:36:48;3.60;;;1.25;;
55292;SDS011;41157;53.560;10.098;2023-10-08T09:39:20;2.08;;;1.05;;
55292;SDS011;41157;53.560;10.098;2023-10-08T09:41:49;1.27;;;0.77;;
55292;SDS011;41157;53.560;10.098;2023-10-08T09:44:17;2.53;;;1.00;;
55292;SDS011;41157;53.560;10.098;2023-10-08T09:46:46;1.75;;;0.82;;
55292;SDS011;41157;53.560;10.098;2023-10-08T09:49:14;1.50;;;0.80;;
55292;SDS011;41157;53.560;10.098;2023-10-08T09:51:43;4.30;;;1.10;;
55292;SDS011;41157;53.560;10.098;2023-10-08T09:54:11;1.73;;;0.77;;
55292;SDS011;41157;53.560;10.098;2023-10-08T09:56:43;2.47;;;1.10;;
55292;SDS011;41157;53.560;10.098;2023-10-08T09:59:11;2.30;;;0.57;;
55292;SDS011;41157;53.560;10.098;2023-10-08T10:01:39;1.90;;;0.90;;
55292;SDS011;41157;53.560;10.098;2023-10-08T10:04:08;1.58;;;1.00;;
55292;SDS011;41157;53.560;10.098;2023-10-08T10:06:35;4.78;;;1.02;;
55292;SDS011;41157;53.560;10.098;2023-10-08T10:09:04;1.15;;;0.88;;
55292;SDS011;41157;53.560;10.098;2023-10-08T10:11:33;18.75;;;1.27;;
55292;SDS011;41157;53.560;10.098;2023-10-08T10:14:03;1.25;;;0.90;;
55292;SDS011;41157;53.560;10.098;2023-10-08T10:16:31;2.35;;;1.05;;
55292;SDS011;41157;53.560;10.098;2023-10-08T10:18:59;1.80;;;1.23;;
55292;SDS011;41157;53.560;10.098;2023-10-08T10:21:28;1.27;;;0.95;;
55292;SDS011;41157;53.560;10.098;2023-10-08T10:23:56;0.93;;;0.93;;
55292;SDS011;41157;53.560;10.098;2023-10-08T10:26:23;1.27;;;0.80;;
55292;SDS011;41157;53.560;10.098;2023-10-08T10:31:41;3.17;;;1.20;;
55292;SDS011;41157;53.560;10.098;2023-10-08T10:34:10;3.08;;;1.13;;
55292;SDS011;41157;53.560;10.098;2023-10-08T10:36:38;2.28;;;0.90;;
55292;SDS011;41157;53.560;10.098;2023-10-08T10:39:06;1.20;;;0.95;;
55292;SDS011;41157;53.560;10.098;2023-10-08T10:41:41;2.67;;;1.10;;
55292;SDS011;41157;53.560;10.098;2023-10-08T10:44:09;0.60;;;0.60;;
55292;SDS011;41157;53.560;10.098;2023-10-08T10:46:38;1.95;;;1.30;;
55292;SDS011;41157;53.560;10.098;2023-10-08T10:49:08;2.22;;;1.02;;
55292;SDS011;41157;53.560;10.098;2023-10-08T10:51:43;2.30;;;1.30;;
55292;SDS011;41157;53.560;10.098;2023-10-08T10:54:11;1.73;;;0.90;;
55292;SDS011;41157;53.560;10.098;2023-10-08T10:56:44;2.25;;;1.23;;
55292;SDS011;41157;53.560;10.098;2023-10-08T10:59:12;2.85;;;1.00;;
55292;SDS011;41157;53.560;10.098;2023-10-08T11:01:44;2.45;;;1.30;;
55292;SDS011;41157;53.560;10.098;2023-10-08T11:04:18;1.85;;;0.88;;
55292;SDS011;41157;53.560;10.098;2023-10-08T11:06:54;1.23;;;1.13;;
55292;SDS011;41157;53.560;10.098;2023-10-08T11:09:23;1.42;;;0.90;;
55292;SDS011;41157;53.560;10.098;2023-10-08T11:12:01;1.73;;;1.00;;
55292;SDS011;41157;53.560;10.098;2023-10-08T11:14:35;2.15;;;1.13;;
55292;SDS011;41157;53.560;10.098;2023-10-08T11:17:08;1.38;;;1.10;;
55292;SDS011;41157;53.560;10.098;2023-10-08T11:19:37;2.50;;;1.13;;
55292;SDS011;41157;53.560;10.098;2023-10-08T11:22:04;1.88;;;1.00;;
55292;SDS011;41157;53.560;10.098;2023-10-08T11:24:31;1.65;;;0.85;;
55292;SDS011;41157;53.560;10.098;2023-10-08T11:26:59;2.15;;;1.17;;
55292;SDS011;41157;53.560;10.098;2023-10-08T11:29:41;2.00;;;1.00;;
55292;SDS011;41157;53.560;10.098;2023-10-08T11:32:08;3.00;;;0.98;;
55292;SDS011;41157;53.560;10.098;2023-10-08T11:34:38;1.00;;;0.90;;
55292;SDS011;41157;53.560;10.098;2023-10-08T11:37:06;2.33;;;1.00;;
55292;SDS011;41157;53.560;10.098;2023-10-08T11:39:44;1.23;;;0.90;;
55292;SDS011;41157;53.560;10.098;2023-10-08T11:42:12;1.65;;;1.10;;
55292;SDS011;41157;53.560;10.098;2023-10-08T11:45:05;1.65;;;1.08;;
55292;SDS011;41157;53.560;10.098;2023-10-08T11:47:43;1.50;;;0.95;;
55292;SDS011;41157;53.560;10.098;2023-10-08T11:50:12;1.20;;;1.05;;
55292;SDS011;41157;53.560;10.098;2023-10-08T11:52:44;1.98;;;0.95;;
55292;SDS011;41157;53.560;10.098;2023-10-08T11:55:11;1.42;;;1.13;;
55292;SDS011;41157;53.560;10.098;2023-10-08T11:57:43;1.75;;;1.20;;
55292;SDS011;41157;53.560;10.098;2023-10-08T12:00:11;1.40;;;1.20;;
55292;SDS011;41157;53.560;10.098;2023-10-08T12:02:43;2.45;;;1.23;;
55292;SDS011;41157;53.560;10.098;2023-10-08T12:05:12;1.25;;;1.00;;
55292;SDS011;41157;53.560;10.098;2023-10-08T12:07:45;0.85;;;0.85;;
55292;SDS011;41157;53.560;10.098;2023-10-08T12:10:12;3.13;;;0.98;;
55292;SDS011;41157;53.560;10.098;2023-10-08T12:12:41;1.60;;;0.90;;
55292;SDS011;41157;53.560;10.098;2023-10-08T12:15:09;0.77;;;0.73;;
55292;SDS011;41157;53.560;10.098;2023-10-08T12:17:37;2.35;;;1.20;;
55292;SDS011;41157;53.560;10.098;2023-10-08T12:20:05;2.10;;;1.10;;
55292;SDS011;41157;53.560;10.098;2023-10-08T12:22:49;2.83;;;0.93;;
55292;SDS011;41157;53.560;10.098;2023-10-08T12:25:16;1.52;;;0.95;;
55292;SDS011;41157;53.560;10.098;2023-10-08T12:27:43;1.60;;;1.00;;
55292;SDS011;41157;53.560;10.098;2023-10-08T12:30:10;1.70;;;1.25;;
55292;SDS011;41157;53.560;10.098;2023-10-08T12:32:37;1.02;;;0.93;;
55292;SDS011;41157;53.560;10.098;2023-10-08T12:35:07;1.08;;;0.82;;
55292;SDS011;41157;53.560;10.098;2023-10-08T12:37:38;1.00;;;1.00;;
55292;SDS011;41157;53.560;10.098;2023-10-08T12:40:07;4.82;;;1.15;;
55292;SDS011;41157;53.560;10.098;2023-10-08T12:42:47;2.58;;;1.30;;
55292;SDS011;41157;53.560;10.098;2023-10-08T12:45:15;1.17;;;1.00;;
55292;SDS011;41157;53.560;10.098;2023-10-08T12:47:45;1.17;;;0.98;;
55292;SDS011;41157;53.560;10.098;2023-10-08T12:50:12;2.25;;;0.90;;
55292;SDS011;41157;53.560;10.098;2023-10-08T12:52:41;2.15;;;0.93;;
55292;SDS011;41157;53.560;10.098;2023-10-08T12:55:13;2.65;;;1.20;;
55292;SDS011;41157;53.560;10.098;2023-10-08T12:57:41;1.77;;;0.93;;
55292;SDS011;41157;53.560;10.098;2023-10-08T13:00:14;1.65;;;1.10;;
55292;SDS011;41157;53.560;10.098;2023-10-08T13:02:42;1.35;;;0.93;;
55292;SDS011;41157;53.560;10.098;2023-10-08T13:05:18;1.75;;;0.95;;
55292;SDS011;41157;53.560;10.098;2023-10-08T13:07:52;4.13;;;1.13;;
55292;SDS011;41157;53.560;10.098;2023-10-08T13:10:20;1.30;;;1.13;;
55292;SDS011;41157;53.560;10.098;2023-10-08T13:12:47;4.88;;;1.17;;
55292;SDS011;41157;53.560;10.098;2023-10-08T13:15:14;1.20;;;1.00;;
55292;SDS011;41157;53.560;10.098;2023-10-08T13:17:41;1.25;;;1.15;;
55292;SDS011;41157;53.560;10.098;2023-10-08T13:20:10;2.38;;;1.05;;
55292;SDS011;41157;53.560;10.098;2023-10-08T13:22:38;1.00;;;1.00;;
55292;SDS011;41157;53.560;10.098;2023-10-08T13:25:05;1.38;;;1.05;;
55292;SDS011;41157;53.560;10.098;2023-10-08T13:27:34;1.25;;;1.15;;
55292;SDS011;41157;53.560;10.098;2023-10-08T13:30:04;1.52;;;1.00;;
55292;SDS011;41157;53.560;10.098;2023-10-08T13:32:33;1.02;;;1.00;;
55292;SDS011;41157;53.560;10.098;2023-10-08T13:35:01;1.00;;;0.88;;
55292;SDS011;41157;53.560;10.098;2023-10-08T13:37:29;3.65;;;0.90;;
55292;SDS011;41157;53.560;10.098;2023-10-08T13:39:56;3.08;;;1.30;;
55292;SDS011;41157;53.560;10.098;2023-10-08T13:42:23;2.45;;;1.15;;
55292;SDS011;41157;53.560;10.098;2023-10-08T13:44:53;3.17;;;1.25;;
55292;SDS011;41157;53.560;10.098;2023-10-08T13:47:22;2.72;;;1.50;;
55292;SDS011;41157;53.560;10.098;2023-10-08T13:49:50;3.92;;;1.15;;
55292;SDS011;41157;53.560;10.098;2023-10-08T13:52:18;1.42;;;1.20;;
55292;SDS011;41157;53.560;10.098;2023-10-08T13:54:51;3.80;;;1.40;;
55292;SDS011;41157;53.560;10.098;2023-10-08T13:57:18;1.85;;;1.30;;
55292;SDS011;41157;53.560;10.098;2023-10-08T13:59:45;1.15;;;1.05;;
55292;SDS011;41157;53.560;10.098;2023-10-08T14:02:14;1.48;;;1.17;;
55292;SDS011;41157;53.560;10.098;2023-10-08T14:04:44;2.97;;;1.30;;
55292;SDS011;41157;53.560;10.098;2023-10-08T14:07:15;4.28;;;1.30;;
55292;SDS011;41157;53.560;10.098;2023-10-08T14:09:43;1.30;;;1.15;;
55292;SDS011;41157;53.560;10.098;2023-10-08T14:12:11;1.50;;;0.88;;
55292;SDS011;41157;53.560;10.098;2023-10-08T14:14:38;1.13;;;1.02;;
55292;SDS011;41157;53.560;10.098;2023-10-08T14:17:09;1.33;;;1.10;;
55292;SDS011;41157;53.560;10.098;2023-10-08T14:19:41;4.20;;;0.85;;
55292;SDS011;41157;53.560;10.098;2023-10-08T14:22:16;4.18;;;1.17;;
55292;SDS011;41157;53.560;10.098;2023-10-08T14:24:47;1.60;;;1.00;;
55292;SDS011;41157;53.560;10.098;2023-10-08T14:27:23;2.03;;;1.40;;
55292;SDS011;41157;53.560;10.098;2023-10-08T14:29:56;3.67;;;1.48;;
55292;SDS011;41157;53.560;10.098;2023-10-08T14:32:26;1.58;;;1.40;;
55292;SDS011;41157;53.560;10.098;2023-10-08T14:34:54;2.45;;;1.85;;
55292;SDS011;41157;53.560;10.098;2023-10-08T14:37:39;3.75;;;1.23;;
55292;SDS011;41157;53.560;10.098;2023-10-08T14:40:20;1.80;;;1.50;;
55292;SDS011;41157;53.560;10.098;2023-10-08T14:43:05;3.47;;;1.48;;
55292;SDS011;41157;53.560;10.098;2023-10-08T14:45:36;2.60;;;1.73;;
55292;SDS011;41157;53.560;10.098;2023-10-08T14:48:06;2.70;;;1.50;;
55292;SDS011;41157;53.560;10.098;2023-10-08T14:50:37;4.00;;;1.27;;
55292;SDS011;41157;53.560;10.098;2023-10-08T14:53:05;1.40;;;1.30;;
55292;SDS011;41157;53.560;10.098;2023-10-08T14:55:32;1.70;;;1.40;;
55292;SDS011;41157;53.560;10.098;2023-10-08T14:58:00;1.70;;;1.48;;
55292;SDS011;41157;53.560;10.098;2023-10-08T15:00:33;2.13;;;1.30;;
55292;SDS011;41157;53.560;10.098;2023-10-08T15:03:01;1.27;;;1.17;;